createdAt,value
2024-02-19T00:01:30.627Z,8.53
2024-02-19T00:04:00.672Z,8.47
2024-02-19T00:06:28.475Z,8.50
2024-02-19T00:08:56.821Z,8.48
2024-02-19T00:11:24.630Z,8.51
2024-02-19T00:13:53.021Z,8.45
2024-02-19T00:16:21.430Z,8.45
2024-02-19T00:18:50.641Z,8.39
2024-02-19T00:21:19.882Z,8.40
2024-02-19T00:23:48.303Z,8.37
2024-02-19T00:26:16.097Z,8.40
2024-02-19T00:28:44.592Z,8.37
2024-02-19T00:31:13.337Z,8.39
2024-02-19T00:33:42.011Z,8.41
2024-02-19T00:36:10.552Z,8.45
2024-02-19T00:38:39.942Z,8.45
2024-02-19T00:41:07.743Z,8.45
2024-02-19T00:43:36.167Z,8.45
2024-02-19T00:46:04.448Z,8.43
2024-02-19T00:48:32.569Z,8.38
2024-02-19T00:51:00.359Z,8.33
2024-02-19T00:53:28.728Z,8.30
2024-02-19T00:55:57.882Z,8.31
2024-02-19T00:58:26.255Z,8.35
2024-02-19T01:00:56.747Z,8.29
2024-02-19T01:03:25.355Z,8.27
2024-02-19T01:05:53.163Z,8.35
2024-02-19T01:08:21.670Z,8.31
2024-02-19T01:10:50.505Z,8.30
2024-02-19T01:13:20.366Z,8.36
2024-02-19T01:15:48.113Z,8.39
2024-02-19T01:18:20.535Z,8.39
2024-02-19T01:20:48.444Z,8.39
2024-02-19T01:23:18.068Z,8.46
2024-02-19T01:25:45.946Z,8.43
2024-02-19T01:28:14.199Z,8.41
2024-02-19T01:30:43.521Z,8.43
2024-02-19T01:33:11.914Z,8.47
2024-02-19T01:35:40.393Z,8.44
2024-02-19T01:38:09.174Z,8.46
2024-02-19T01:40:36.894Z,8.39
2024-02-19T01:43:07.078Z,8.28
2024-02-19T01:45:35.712Z,8.15
2024-02-19T01:48:05.626Z,8.09
2024-02-19T01:50:34.514Z,8.05
2024-02-19T01:53:04.784Z,8.00
2024-02-19T01:55:34.825Z,7.94
2024-02-19T01:58:03.990Z,7.89
2024-02-19T02:00:39.323Z,7.92
2024-02-19T02:03:12.318Z,7.92
2024-02-19T02:05:40.172Z,7.74
2024-02-19T02:08:08.865Z,7.70
2024-02-19T02:10:36.616Z,7.61
2024-02-19T02:13:05.028Z,7.54
2024-02-19T02:15:32.922Z,7.61
2024-02-19T02:18:01.071Z,7.55
2024-02-19T02:20:32.451Z,7.56
2024-02-19T02:23:01.098Z,7.58
2024-02-19T02:25:28.837Z,7.54
2024-02-19T02:27:58.966Z,7.49
2024-02-19T02:30:26.768Z,7.51
2024-02-19T02:32:57.232Z,7.51
2024-02-19T02:35:25.795Z,7.45
2024-02-19T02:37:53.860Z,7.40
2024-02-19T02:40:21.802Z,7.45
2024-02-19T02:42:50.664Z,7.45
2024-02-19T02:45:19.934Z,7.42
2024-02-19T02:47:48.281Z,7.47
2024-02-19T02:50:16.307Z,7.43
2024-02-19T02:52:44.257Z,7.42
2024-02-19T02:55:13.247Z,7.37
2024-02-19T02:57:41.095Z,7.31
2024-02-19T03:00:11.550Z,7.33
2024-02-19T03:02:40.694Z,7.28
2024-02-19T03:05:09.207Z,7.33
2024-02-19T03:07:37.789Z,7.26
2024-02-19T03:10:06.807Z,7.33
2024-02-19T03:12:35.246Z,7.34
2024-02-19T03:15:03.053Z,7.33
2024-02-19T03:17:31.202Z,7.34
2024-02-19T03:20:00.335Z,7.34
2024-02-19T03:22:28.723Z,7.35
2024-02-19T03:24:56.518Z,7.30
2024-02-19T03:27:24.903Z,7.36
2024-02-19T03:29:52.936Z,7.27
2024-02-19T03:32:20.729Z,7.21
2024-02-19T03:34:49.216Z,7.23
2024-02-19T03:37:18.909Z,7.22
2024-02-19T03:39:47.346Z,7.17
2024-02-19T03:42:15.065Z,7.12
2024-02-19T03:44:43.174Z,7.19
2024-02-19T03:47:11.346Z,7.15
2024-02-19T03:49:39.986Z,7.16
2024-02-19T03:52:08.189Z,7.16
2024-02-19T03:54:38.015Z,7.15
2024-02-19T03:57:06.817Z,7.15
2024-02-19T03:59:34.607Z,7.18
2024-02-19T04:02:02.575Z,7.16
2024-02-19T04:04:30.940Z,7.21
2024-02-19T04:06:59.254Z,7.08
2024-02-19T04:09:27.062Z,7.07
2024-02-19T04:11:56.855Z,7.10
2024-02-19T04:14:25.980Z,7.11
2024-02-19T04:16:54.370Z,7.08
2024-02-19T04:19:24.640Z,7.16
2024-02-19T04:21:53.141Z,7.13
2024-02-19T04:24:21.514Z,7.07
2024-02-19T04:26:49.839Z,7.00
2024-02-19T04:29:18.923Z,7.09
2024-02-19T04:31:47.280Z,7.07
2024-02-19T04:34:15.267Z,7.10
2024-02-19T04:36:43.556Z,7.13
2024-02-19T04:39:13.236Z,7.07
2024-02-19T04:41:40.975Z,7.05
2024-02-19T04:44:09.334Z,7.02
2024-02-19T04:46:40.037Z,7.11
2024-02-19T04:49:07.883Z,7.11
2024-02-19T04:51:36.346Z,7.14
2024-02-19T04:54:05.361Z,7.05
2024-02-19T04:56:33.483Z,7.02
2024-02-19T04:59:02.063Z,7.05
2024-02-19T05:01:31.940Z,6.96
2024-02-19T05:04:01.568Z,7.01
2024-02-19T05:06:30.356Z,7.03
2024-02-19T05:08:58.465Z,7.06
2024-02-19T05:11:26.336Z,7.04
2024-02-19T05:13:54.422Z,7.05
2024-02-19T05:16:22.234Z,7.11
2024-02-19T05:18:51.209Z,7.14
2024-02-19T05:21:20.327Z,7.17
2024-02-19T05:23:48.657Z,7.11
2024-02-19T05:26:25.570Z,7.15
2024-02-19T05:28:54.047Z,7.15
2024-02-19T05:31:39.726Z,7.14
2024-02-19T05:34:09.783Z,7.16
2024-02-19T05:36:39.122Z,7.18
2024-02-19T05:39:12.269Z,7.09
2024-02-19T05:41:40.456Z,7.10
2024-02-19T05:44:09.524Z,7.13
2024-02-19T05:46:37.553Z,7.18
2024-02-19T05:49:05.820Z,7.12
2024-02-19T05:51:33.654Z,7.19
2024-02-19T05:54:03.417Z,7.15
2024-02-19T05:56:31.199Z,7.08
2024-02-19T05:58:59.580Z,7.13
2024-02-19T06:01:27.483Z,7.15
2024-02-19T06:03:55.945Z,7.20
2024-02-19T06:06:23.740Z,7.11
2024-02-19T06:08:52.102Z,7.16
2024-02-19T06:11:22.790Z,7.20
2024-02-19T06:13:51.620Z,7.15
2024-02-19T06:16:19.468Z,7.23
2024-02-19T06:18:48.259Z,7.24
2024-02-19T06:21:16.093Z,7.25
2024-02-19T06:23:44.402Z,7.21
2024-02-19T06:26:13.788Z,7.28
2024-02-19T06:28:43.513Z,7.25
2024-02-19T06:31:11.308Z,7.34
2024-02-19T06:33:40.428Z,7.35
2024-02-19T06:36:08.669Z,7.34
2024-02-19T06:38:36.707Z,7.35
2024-02-19T06:41:04.756Z,7.40
2024-02-19T06:43:33.230Z,7.35
2024-02-19T06:46:02.392Z,7.35
2024-02-19T06:48:30.913Z,7.39
2024-02-19T06:50:59.322Z,7.40
2024-02-19T06:53:27.097Z,7.39
2024-02-19T06:55:55.216Z,7.38
2024-02-19T06:58:23.844Z,7.42
2024-02-19T07:00:52.371Z,7.38
2024-02-19T07:03:21.857Z,7.47
2024-02-19T07:05:49.757Z,7.47
2024-02-19T07:08:17.531Z,7.40
2024-02-19T07:10:45.946Z,7.43
2024-02-19T07:13:13.961Z,7.48
2024-02-19T07:15:42.416Z,7.51
2024-02-19T07:18:11.982Z,7.50
2024-02-19T07:20:42.923Z,7.58
2024-02-19T07:23:10.684Z,7.59
2024-02-19T07:25:38.589Z,7.58
2024-02-19T07:28:06.653Z,7.68
2024-02-19T07:30:37.045Z,7.76
2024-02-19T07:33:05.320Z,7.65
2024-02-19T07:35:33.443Z,7.70
2024-02-19T07:38:02.526Z,7.71
2024-02-19T07:40:34.173Z,7.72
2024-02-19T07:43:03.696Z,7.71
2024-02-19T07:45:32.137Z,7.69
2024-02-19T07:48:01.424Z,7.70
2024-02-19T07:50:30.073Z,7.80
2024-02-19T07:52:57.839Z,7.82
2024-02-19T07:55:27.742Z,7.87
2024-02-19T07:57:55.911Z,7.97
2024-02-19T08:00:23.971Z,7.98
2024-02-19T08:02:51.848Z,7.96
2024-02-19T08:05:20.198Z,7.99
2024-02-19T08:07:48.235Z,8.06
2024-02-19T08:10:16.907Z,8.09
2024-02-19T08:12:46.937Z,8.15
2024-02-19T08:15:15.102Z,8.18
2024-02-19T08:17:42.984Z,8.14
2024-02-19T08:20:11.757Z,8.17
2024-02-19T08:22:39.494Z,8.33
2024-02-19T08:25:08.667Z,8.55
2024-02-19T08:27:36.400Z,8.82
2024-02-19T08:30:07.162Z,8.91
2024-02-19T08:32:34.977Z,9.01
2024-02-19T08:35:03.186Z,8.84
2024-02-19T08:37:31.097Z,8.92
2024-02-19T08:39:59.356Z,8.85
2024-02-19T08:42:27.199Z,8.73
2024-02-19T08:44:55.010Z,8.61
2024-02-19T08:47:24.338Z,8.67
2024-02-19T08:49:52.316Z,8.76
2024-02-19T08:52:20.138Z,8.75
2024-02-19T08:54:48.797Z,8.75
2024-02-19T08:57:17.470Z,8.71
2024-02-19T08:59:47.072Z,8.82
2024-02-19T09:02:15.546Z,8.91
2024-02-19T09:04:45.350Z,8.92
2024-02-19T09:07:14.735Z,9.03
2024-02-19T09:09:45.463Z,9.02
2024-02-19T09:12:13.956Z,9.11
2024-02-19T09:14:41.809Z,9.07
2024-02-19T09:17:09.637Z,9.14
2024-02-19T09:19:37.538Z,9.35
2024-02-19T09:22:08.691Z,9.56
2024-02-19T09:24:36.782Z,9.85
2024-02-19T09:27:04.911Z,9.98
2024-02-19T09:29:35.814Z,10.12
2024-02-19T09:32:04.117Z,9.97
2024-02-19T09:34:32.350Z,10.36
2024-02-19T09:37:01.631Z,10.44
2024-02-19T09:39:31.014Z,10.58
2024-02-19T09:41:58.894Z,10.81
2024-02-19T09:44:27.676Z,11.02
2024-02-19T09:47:02.626Z,11.01
2024-02-19T09:49:32.193Z,11.15
2024-02-19T09:52:03.232Z,11.40
2024-02-19T09:54:32.983Z,11.95
2024-02-19T09:57:02.028Z,13.33
2024-02-19T09:59:30.523Z,15.82
2024-02-19T10:01:58.346Z,16.81
2024-02-19T10:04:28.626Z,16.55
2024-02-19T10:07:01.949Z,15.66
2024-02-19T10:09:29.883Z,15.22
2024-02-19T10:11:59.433Z,15.15
2024-02-19T10:14:27.382Z,15.49
2024-02-19T10:16:56.096Z,15.87
2024-02-19T10:19:24.247Z,16.45
2024-02-19T10:21:52.093Z,17.43
2024-02-19T10:24:20.692Z,17.92
2024-02-19T10:26:49.249Z,17.30
2024-02-19T10:29:20.282Z,17.20
2024-02-19T10:31:48.208Z,16.58
2024-02-19T10:34:18.123Z,15.47
2024-02-19T10:36:46.580Z,14.56
2024-02-19T10:39:15.096Z,13.95
2024-02-19T10:41:44.124Z,13.48
2024-02-19T10:44:11.925Z,13.26
2024-02-19T10:46:41.499Z,13.22
2024-02-19T10:49:09.702Z,12.80
2024-02-19T10:51:40.548Z,12.61
2024-02-19T10:54:08.543Z,13.27
2024-02-19T10:56:38.151Z,13.71
2024-02-19T10:59:08.775Z,13.78
2024-02-19T11:01:46.079Z,14.21
2024-02-19T11:04:19.816Z,14.35
2024-02-19T11:06:48.578Z,14.16
2024-02-19T11:09:27.964Z,14.50
2024-02-19T11:11:59.406Z,14.94
2024-02-19T11:14:29.963Z,14.99
2024-02-19T11:16:59.328Z,14.45
2024-02-19T11:19:28.201Z,13.46
2024-02-19T11:22:07.192Z,13.13
2024-02-19T11:24:35.277Z,12.23
2024-02-19T11:27:06.230Z,11.86
2024-02-19T11:29:43.612Z,11.87
2024-02-19T11:32:21.024Z,12.03
2024-02-19T11:34:51.885Z,11.95
2024-02-19T11:37:20.889Z,11.84
2024-02-19T11:39:49.370Z,11.90
2024-02-19T11:42:18.063Z,12.12
2024-02-19T11:44:47.589Z,12.04
2024-02-19T11:47:17.467Z,12.15
2024-02-19T11:49:47.516Z,12.08
2024-02-19T11:52:16.545Z,11.78
2024-02-19T11:54:45.701Z,11.82
2024-02-19T11:57:15.200Z,11.80
2024-02-19T11:59:45.930Z,11.36
2024-02-19T12:02:13.896Z,11.06
2024-02-19T12:04:44.120Z,11.05
2024-02-19T12:07:12.624Z,11.31
2024-02-19T12:09:40.598Z,12.29
2024-02-19T12:12:08.402Z,13.61
2024-02-19T12:14:38.007Z,13.43
2024-02-19T12:17:07.029Z,13.57
2024-02-19T12:19:35.480Z,13.53
2024-02-19T12:22:05.498Z,13.85
2024-02-19T12:24:34.044Z,13.78
2024-02-19T12:27:02.558Z,14.14
2024-02-19T12:29:30.354Z,14.07
2024-02-19T12:31:58.718Z,13.97
2024-02-19T12:34:26.611Z,13.52
2024-02-19T12:36:54.959Z,13.20
2024-02-19T12:39:26.809Z,13.40
2024-02-19T12:41:54.717Z,14.23
2024-02-19T12:44:22.493Z,13.59
2024-02-19T12:46:51.065Z,12.98
2024-02-19T12:49:19.749Z,12.64
2024-02-19T12:51:49.905Z,12.17
2024-02-19T12:54:19.560Z,12.04
2024-02-19T12:56:49.386Z,11.99
2024-02-19T12:59:17.524Z,11.88
2024-02-19T13:01:45.607Z,11.84
2024-02-19T13:04:13.617Z,11.92
2024-02-19T13:06:41.815Z,11.91
2024-02-19T13:09:12.120Z,12.43
2024-02-19T13:11:40.279Z,13.19
2024-02-19T13:14:10.482Z,13.45
2024-02-19T13:16:40.039Z,13.43
2024-02-19T13:19:08.195Z,13.25
2024-02-19T13:21:36.710Z,13.30
2024-02-19T13:24:04.557Z,13.22
2024-02-19T13:26:33.397Z,13.35
2024-02-19T13:29:03.283Z,13.19
2024-02-19T13:31:33.210Z,12.94
2024-02-19T13:34:01.256Z,12.80
2024-02-19T13:36:29.108Z,12.63
2024-02-19T13:38:57.227Z,12.75
2024-02-19T13:41:25.709Z,12.89
2024-02-19T13:43:54.125Z,12.79
2024-02-19T13:46:22.296Z,12.69
2024-02-19T13:49:02.025Z,12.81
2024-02-19T13:51:30.093Z,12.61
2024-02-19T13:53:57.963Z,12.29
2024-02-19T13:56:26.945Z,12.13
2024-02-19T13:58:54.769Z,11.94
2024-02-19T14:01:22.702Z,12.04
2024-02-19T14:03:52.770Z,12.02
2024-02-19T14:06:20.983Z,11.90
2024-02-19T14:08:48.783Z,11.78
2024-02-19T14:11:16.593Z,11.58
2024-02-19T14:13:51.058Z,11.56
2024-02-19T14:16:23.182Z,11.44
2024-02-19T14:18:52.466Z,11.40
2024-02-19T14:21:20.333Z,11.41
2024-02-19T14:23:48.088Z,11.37
2024-02-19T14:26:16.220Z,11.37
2024-02-19T14:28:44.420Z,11.14
2024-02-19T14:31:12.376Z,11.20
2024-02-19T14:33:40.708Z,11.25
2024-02-19T14:36:10.278Z,11.40
2024-02-19T14:38:39.355Z,11.74
2024-02-19T14:41:07.317Z,11.71
2024-02-19T14:43:35.283Z,11.66
2024-02-19T14:46:05.879Z,11.64
2024-02-19T14:48:36.859Z,11.45
2024-02-19T14:51:06.797Z,11.36
2024-02-19T14:53:36.050Z,11.28
2024-02-19T14:56:04.184Z,11.31
2024-02-19T14:58:34.382Z,11.28
2024-02-19T15:01:02.640Z,11.14
2024-02-19T15:03:30.704Z,11.13
2024-02-19T15:05:58.743Z,11.21
2024-02-19T15:08:27.102Z,11.05
2024-02-19T15:10:58.697Z,11.14
2024-02-19T15:13:26.614Z,11.16
2024-02-19T15:15:54.443Z,11.23
2024-02-19T15:18:23.970Z,11.32
2024-02-19T15:20:53.539Z,11.24
2024-02-19T15:23:22.204Z,11.30
2024-02-19T15:25:50.148Z,11.36
2024-02-19T15:28:19.692Z,11.44
2024-02-19T15:30:50.982Z,11.40
2024-02-19T15:33:19.127Z,11.41
2024-02-19T15:35:46.879Z,11.40
2024-02-19T15:38:14.922Z,11.34
2024-02-19T15:40:44.939Z,11.35
2024-02-19T15:43:13.242Z,11.29
2024-02-19T15:45:44.734Z,11.16
2024-02-19T15:48:14.942Z,11.10
2024-02-19T15:50:42.852Z,11.06
2024-02-19T15:53:24.473Z,11.07
2024-02-19T15:56:00.562Z,11.10
2024-02-19T15:58:30.349Z,11.00
2024-02-19T16:00:59.678Z,10.96
2024-02-19T16:03:29.419Z,10.95
2024-02-19T16:06:00.923Z,10.98
2024-02-19T16:08:39.951Z,11.05
2024-02-19T16:11:09.305Z,11.03
2024-02-19T16:13:39.103Z,10.93
2024-02-19T16:16:11.448Z,10.92
2024-02-19T16:18:40.670Z,10.97
2024-02-19T16:21:08.568Z,10.90
2024-02-19T16:23:37.976Z,10.89
2024-02-19T16:26:06.842Z,10.93
2024-02-19T16:28:34.989Z,10.88
2024-02-19T16:31:04.251Z,10.83
2024-02-19T16:33:33.686Z,10.76
2024-02-19T16:36:05.816Z,10.76
2024-02-19T16:38:38.232Z,10.71
2024-02-19T16:41:06.963Z,10.68
2024-02-19T16:43:36.183Z,10.70
2024-02-19T16:46:05.271Z,10.65
2024-02-19T16:48:39.768Z,10.65
2024-02-19T16:51:08.182Z,10.61
2024-02-19T16:53:37.182Z,10.54
2024-02-19T16:56:05.550Z,10.51
2024-02-19T16:58:36.228Z,10.47
2024-02-19T17:01:06.181Z,10.35
2024-02-19T17:03:35.669Z,10.38
2024-02-19T17:06:04.534Z,10.32
2024-02-19T17:08:31.848Z,10.33
2024-02-19T17:10:59.856Z,10.27
2024-02-19T17:13:27.869Z,10.25
2024-02-19T17:15:56.131Z,10.17
2024-02-19T17:18:24.039Z,10.10
2024-02-19T17:20:53.316Z,10.13
2024-02-19T17:23:21.541Z,10.10
2024-02-19T17:25:49.322Z,10.10
2024-02-19T17:28:19.825Z,10.09
2024-02-19T17:30:48.063Z,10.09
2024-02-19T17:33:16.367Z,10.12
2024-02-19T17:35:45.887Z,10.13
2024-02-19T17:38:15.995Z,10.09
2024-02-19T17:40:45.250Z,10.05
2024-02-19T17:43:13.827Z,10.06
2024-02-19T17:45:42.395Z,10.11
2024-02-19T17:48:14.189Z,10.11
2024-02-19T17:50:43.464Z,10.08
2024-02-19T17:53:11.557Z,10.10
2024-02-19T17:55:41.971Z,10.07
2024-02-19T17:58:10.401Z,10.08
2024-02-19T18:00:41.942Z,10.07
2024-02-19T18:03:10.118Z,9.97
2024-02-19T18:05:38.050Z,10.03
2024-02-19T18:08:06.586Z,10.00
2024-02-19T18:10:34.548Z,9.91
2024-02-19T18:13:04.532Z,9.83
2024-02-19T18:15:32.442Z,9.77
2024-02-19T18:18:04.544Z,9.64
2024-02-19T18:20:33.818Z,9.62
2024-02-19T18:23:04.302Z,9.58
2024-02-19T18:25:32.253Z,9.62
2024-02-19T18:28:00.342Z,9.59
2024-02-19T18:30:29.497Z,9.66
2024-02-19T18:32:59.268Z,9.66
2024-02-19T18:35:27.294Z,9.66
2024-02-19T18:37:55.444Z,9.72
2024-02-19T18:40:23.670Z,9.68
2024-02-19T18:42:53.301Z,9.76
2024-02-19T18:45:21.148Z,9.75
2024-02-19T18:47:50.500Z,9.76
2024-02-19T18:50:19.202Z,9.84
2024-02-19T18:52:47.536Z,9.84
2024-02-19T18:55:15.920Z,9.84
2024-02-19T18:57:43.696Z,9.83
2024-02-19T19:00:11.965Z,9.88
2024-02-19T19:02:42.481Z,9.87
2024-02-19T19:05:14.149Z,9.87
2024-02-19T19:07:43.043Z,9.89
2024-02-19T19:10:11.377Z,9.88
2024-02-19T19:12:39.471Z,9.81
2024-02-19T19:15:08.847Z,9.71
2024-02-19T19:17:37.174Z,9.78
2024-02-19T19:20:10.166Z,9.69
2024-02-19T19:22:40.065Z,9.75
2024-02-19T19:25:08.704Z,9.76
2024-02-19T19:27:37.132Z,9.69
2024-02-19T19:30:05.784Z,9.71
2024-02-19T19:32:36.367Z,9.76
2024-02-19T19:35:04.797Z,9.78
2024-02-19T19:37:32.680Z,9.75
2024-02-19T19:40:06.781Z,9.72
2024-02-19T19:42:35.239Z,9.68
2024-02-19T19:45:03.019Z,9.74
2024-02-19T19:47:34.592Z,9.69
2024-02-19T19:50:02.987Z,9.69
2024-02-19T19:52:35.268Z,9.71
2024-02-19T19:55:05.403Z,9.75
2024-02-19T19:57:33.903Z,9.75
2024-02-19T20:00:01.710Z,9.78
2024-02-19T20:02:36.948Z,9.76
2024-02-19T20:05:05.367Z,9.71
2024-02-19T20:07:33.258Z,9.72
2024-02-19T20:10:04.312Z,9.76
2024-02-19T20:12:34.993Z,9.83
2024-02-19T20:15:03.541Z,9.87
2024-02-19T20:17:33.431Z,9.81
2024-02-19T20:20:02.412Z,9.85
2024-02-19T20:22:31.437Z,9.80
2024-02-19T20:24:59.364Z,9.78
2024-02-19T20:27:27.611Z,9.78
2024-02-19T20:29:56.858Z,9.79
2024-02-19T20:32:25.057Z,9.75
2024-02-19T20:34:53.390Z,9.72
2024-02-19T20:37:24.386Z,9.67
2024-02-19T20:39:52.526Z,9.65
2024-02-19T20:42:20.542Z,9.66
2024-02-19T20:44:48.375Z,9.65
2024-02-19T20:47:18.990Z,9.62
2024-02-19T20:49:47.929Z,9.60
2024-02-19T20:52:22.167Z,9.53
2024-02-19T20:54:55.277Z,9.57
2024-02-19T20:57:26.206Z,9.53
2024-02-19T20:59:54.163Z,9.52
2024-02-19T21:02:27.219Z,9.53
2024-02-19T21:04:55.062Z,9.50
2024-02-19T21:07:24.635Z,9.57
2024-02-19T21:09:52.557Z,9.52
2024-02-19T21:12:22.070Z,9.53
2024-02-19T21:14:50.228Z,9.57
2024-02-19T21:17:18.103Z,9.54
2024-02-19T21:19:47.639Z,9.55
2024-02-19T21:22:15.611Z,9.49
2024-02-19T21:24:44.800Z,9.42
2024-02-19T21:27:12.662Z,9.43
2024-02-19T21:29:41.340Z,9.39
2024-02-19T21:32:09.078Z,9.40
2024-02-19T21:34:38.554Z,9.32
2024-02-19T21:37:08.045Z,9.31
2024-02-19T21:39:36.182Z,9.11
2024-02-19T21:42:04.684Z,8.96
2024-02-19T21:44:33.257Z,8.99
2024-02-19T21:47:01.268Z,8.93
2024-02-19T21:49:29.963Z,8.94
2024-02-19T21:51:57.871Z,8.95
2024-02-19T21:54:27.359Z,8.96
2024-02-19T21:56:55.136Z,8.98
2024-02-19T21:59:23.184Z,8.88
2024-02-19T22:01:51.343Z,8.85
2024-02-19T22:04:19.717Z,8.81
2024-02-19T22:06:47.884Z,8.91
2024-02-19T22:09:16.046Z,8.90
2024-02-19T22:11:46.585Z,8.88
2024-02-19T22:14:15.520Z,8.89
2024-02-19T22:16:43.823Z,8.96
2024-02-19T22:19:12.075Z,8.93
2024-02-19T22:21:39.980Z,8.93
2024-02-19T22:24:08.081Z,8.92
2024-02-19T22:26:35.871Z,8.94
2024-02-19T22:29:05.051Z,8.96
2024-02-19T22:31:33.668Z,8.97
2024-02-19T22:34:01.566Z,8.97
2024-02-19T22:36:29.399Z,8.95
2024-02-19T22:38:57.133Z,8.97
2024-02-19T22:41:25.487Z,8.95
2024-02-19T22:43:53.214Z,8.98
2024-02-19T22:46:23.095Z,8.97
2024-02-19T22:48:50.889Z,8.91
2024-02-19T22:51:19.418Z,8.92
2024-02-19T22:53:47.152Z,8.88
2024-02-19T22:56:14.879Z,8.92
2024-02-19T22:58:42.703Z,8.99
2024-02-19T23:01:11.223Z,8.99
2024-02-19T23:03:40.456Z,9.01
2024-02-19T23:06:08.973Z,9.00
2024-02-19T23:08:36.735Z,8.99
2024-02-19T23:11:04.566Z,8.99
2024-02-19T23:13:32.453Z,8.99
2024-02-19T23:16:00.888Z,8.99
2024-02-19T23:18:28.692Z,8.85
2024-02-19T23:20:57.829Z,8.87
2024-02-19T23:23:25.659Z,8.88
2024-02-19T23:25:54.513Z,8.86
2024-02-19T23:28:23.000Z,8.85
2024-02-19T23:30:53.058Z,8.83
2024-02-19T23:33:20.995Z,8.81
2024-02-19T23:35:49.271Z,8.83
2024-02-19T23:38:20.402Z,8.83
2024-02-19T23:40:48.785Z,8.82
2024-02-19T23:43:16.742Z,8.84
2024-02-19T23:45:45.191Z,8.79
2024-02-19T23:48:13.039Z,8.74
2024-02-19T23:50:41.786Z,8.82
2024-02-19T23:53:09.640Z,8.82
2024-02-19T23:55:39.505Z,8.81
2024-02-19T23:58:07.297Z,8.77
